Atlantic City, NJ

4:18 AM EDT on October 20, 2014 (GMT -0400)
Brigantine DPW | Change Station
CLOSE
Current Station
Personal Weather Station
Location: Brigantine, NJ
Elevation: 4 m
Nearby Weather Stations

Elev 4 m 39.39 °N, 74.39 °W | Updated 5 minutes ago

Clear
Clear
7.5 °C
Feels Like 8 °C
N
3.2
Wind Variable Wind from North
Gusts 8.0 km/h

Today
High -- | Low -- °C
--% Chance of Precip.
Yesterday
High -- | Low -- °C
Precip. -- mm
7:12 AM 6:11 PM
Waning Crescent, 12% visible
Pressure 1020 hPa
Visibility 16.1 kilometers
Clouds Clear
Windchill 8 °C
Dew Point 3 °C
Humidity 73%
Rainfall 0 mm
Snow Depth Not available.
UV 0.0 out of 12
Pollen 2.00 out of 12
Air Quality Not available.
Flu Activity Sporadic
METAR KACY 200754Z 00000KT 10SM CLR 01/M01 A3012 RMK AO2 SLP198 T00061011

More Conditions Fewer Conditions

Pressure 1020 hPa
Visibility 16.1 kilometers
Clouds Clear
Windchill 8 °C
Dew Point 3 °C
Humidity 73%
Rainfall 0 mm
Snow Depth Not available.
UV 0.0 out of 12
Pollen 2.00 out of 12
Air Quality Not available.
Flu Activity Sporadic
METAR KACY 200754Z 00000KT 10SM CLR 01/M01 A3012 RMK AO2 SLP198 T00061011

More Conditions Fewer Conditions

10-Day Weather Forecast

Almanac

Astronomy

Oct. 20, 2014 Rise Set
Actual Time 7:12 AM EDT 6:11 PM EDT
Civil Twilight 6:45 AM EDT 6:38 PM EDT
Nautical Twilight 6:14 AM EDT 7:10 PM EDT
Astronomical Twilight 5:43 AM EDT 7:41 PM EDT
Moon 3:59 AM EDT 4:32 PM EDT
Length of Visible Light 11h 53m
Length of Day
10h 58m
Waning Crescent, 12% of the Moon is Illuminated
Today
Waning Crescent
Oct 23
New
Oct 30
First Quarter
Nov 6
Full
Nov 14
Last Quarter

Today's Extremes

State Highs State Lows

Community

WunderPhotos

Upload Photos

1,763,316 photos uploaded!

Nearby

Snow Depth

Station Depth Elevation
No new snow has been reported.

Earthquake Activity

City Distance Mag. Time & Date
No recent earthquake activity has been reported nearby.
Minimum magnitude displayed is 2.5.

Coastal Water Temperatures

Place Temperature
Atlantic City, NJ 17.8 °C

Nearby Weather Stations